CheckWX is a tool to help pilots better visualize weather data.  It is not intended as a substitute for an official pre-flight weather briefing.

12:20:24 UTC

KFRM METAR
Fairmont Municipal Airport
Fairmont, Minnesota, USA
Current

24 mins ago

KFRM 251156Z AUTO 36008KT 10SM OVC029 M01/M03 A3031 RMK AO2 SLP279 T10061033 10022 21006 52008 FZRANO
Observed
Mar-25 @ 11:56 UTC
Wind
  • 360° at 8 KTS
Visibility
10 SM
Flight Rules
MVFR
Cloud Levels
  • Overcast at 2,900' AGL
Temperature
-1°C / 30°F
Dewpoint
-3°C / 27°F
Humidity
86%
Altimeter
30.31" Hg
Pressure
1027.9 hPa
Previous

56 mins ago

KFRM 251124Z AUTO 36010KT 10SM OVC029 M01/M03 A3031 RMK AO2 FZRANO
Observed
Mar-25 @ 11:24 UTC
Wind
  • 360° at 10 KTS
Visibility
10 SM
Flight Rules
MVFR
Cloud Levels
  • Overcast at 2,900' AGL
Temperature
-1°C / 30°F
Dewpoint
-3°C / 27°F
Humidity
86%
Altimeter
30.31" Hg
Pressure
1026.42 hPa
Previous

1 hour ago

KFRM 251056Z AUTO 36008KT 10SM OVC031 M01/M03 A3031 RMK AO2 SLP278 T10061033 FZRANO
Observed
Mar-25 @ 10:56 UTC
Wind
  • 360° at 8 KTS
Visibility
10 SM
Flight Rules
VFR
Cloud Levels
  • Overcast at 3,100' AGL
Temperature
-1°C / 30°F
Dewpoint
-3°C / 27°F
Humidity
86%
Altimeter
30.31" Hg
Pressure
1027.8 hPa